createdAt,value
2022-09-11T00:00:59.245Z,8.57
2022-09-11T00:03:27.975Z,9.82
2022-09-11T00:05:54.630Z,11.27
2022-09-11T00:08:21.693Z,9.02
2022-09-11T00:10:49.270Z,11.90
2022-09-11T00:13:24.963Z,8.95
2022-09-11T00:15:52.204Z,9.05
2022-09-11T00:18:21.712Z,9.68
2022-09-11T00:20:53.444Z,9.80
2022-09-11T00:23:22.077Z,10.45
2022-09-11T00:25:49.691Z,11.07
2022-09-11T00:28:19.676Z,11.50
2022-09-11T00:30:56.172Z,12.10
2022-09-11T00:33:22.792Z,12.63
2022-09-11T00:35:58.244Z,13.15
2022-09-11T00:38:29.693Z,12.80
2022-09-11T00:40:58.268Z,14.37
2022-09-11T00:43:26.767Z,12.73
2022-09-11T00:45:58.484Z,13.75
2022-09-11T00:48:27.562Z,12.13
2022-09-11T00:50:55.809Z,14.00
2022-09-11T00:53:25.270Z,13.80
2022-09-11T00:55:57.107Z,13.68
2022-09-11T00:58:27.803Z,13.85
2022-09-11T01:00:56.431Z,16.60
2022-09-11T01:03:25.428Z,14.18
2022-09-11T01:05:54.598Z,14.55
2022-09-11T01:08:22.639Z,17.30
2022-09-11T01:11:13.299Z,19.92
2022-09-11T01:13:56.994Z,18.15
2022-09-11T01:16:38.094Z,18.80
2022-09-11T01:19:22.491Z,17.70
2022-09-11T01:22:11.756Z,21.50
2022-09-11T01:24:51.600Z,22.83
2022-09-11T01:27:53.762Z,24.27
2022-09-11T01:30:32.909Z,23.02
2022-09-11T01:33:02.834Z,26.25
2022-09-11T01:35:32.352Z,26.08
2022-09-11T01:38:08.862Z,28.63
2022-09-11T01:40:53.429Z,25.05
2022-09-11T01:43:26.935Z,27.73
2022-09-11T01:45:56.361Z,27.98
2022-09-11T01:48:52.301Z,28.48
2022-09-11T01:51:24.890Z,27.73
2022-09-11T01:53:53.462Z,29.80
2022-09-11T01:56:29.684Z,29.92
2022-09-11T01:59:03.405Z,24.98
2022-09-11T02:01:39.001Z,29.75
2022-09-11T02:04:11.250Z,32.30
2022-09-11T02:06:56.008Z,30.23
2022-09-11T02:09:27.355Z,25.90
2022-09-11T02:11:57.706Z,33.88
2022-09-11T02:14:31.181Z,29.25
2022-09-11T02:17:15.175Z,35.13
2022-09-11T02:19:41.978Z,30.42
2022-09-11T02:22:08.742Z,28.55
2022-09-11T02:24:35.406Z,34.60
2022-09-11T02:27:05.914Z,34.20
2022-09-11T02:29:33.249Z,38.97
2022-09-11T02:32:01.150Z,31.90
2022-09-11T02:34:32.018Z,39.55
2022-09-11T02:37:25.024Z,36.17
2022-09-11T02:40:13.113Z,39.58
2022-09-11T02:42:54.786Z,38.80
2022-09-11T02:46:00.590Z,35.50
2022-09-11T02:48:36.106Z,36.85
2022-09-11T02:51:26.266Z,35.53
2022-09-11T02:54:07.365Z,34.08
2022-09-11T02:56:49.149Z,32.67
2022-09-11T02:59:35.628Z,37.65
2022-09-11T03:02:02.425Z,34.47
2022-09-11T03:04:29.670Z,33.25
2022-09-11T03:06:58.641Z,37.47
2022-09-11T03:09:25.234Z,31.48
2022-09-11T03:11:51.798Z,31.80
2022-09-11T03:14:18.345Z,37.45
2022-09-11T03:16:45.530Z,37.92
2022-09-11T03:19:12.993Z,30.65
2022-09-11T03:21:39.654Z,35.22
2022-09-11T03:24:06.496Z,35.83
2022-09-11T03:26:33.531Z,38.17
2022-09-11T03:29:00.417Z,37.15
2022-09-11T03:31:28.291Z,41.08
2022-09-11T03:33:55.254Z,39.33
2022-09-11T03:36:22.673Z,35.15
2022-09-11T03:38:49.655Z,40.53
2022-09-11T03:41:16.621Z,37.45
2022-09-11T03:43:43.373Z,40.20
2022-09-11T03:46:10.291Z,40.10
2022-09-11T03:48:37.715Z,36.95
2022-09-11T03:51:06.030Z,42.85
2022-09-11T03:53:33.533Z,42.53
2022-09-11T03:56:00.325Z,40.53
2022-09-11T03:58:27.108Z,47.83
2022-09-11T04:00:53.724Z,40.20
2022-09-11T04:03:20.333Z,43.20
2022-09-11T04:06:02.643Z,36.53
2022-09-11T04:08:33.502Z,41.65
2022-09-11T04:11:02.677Z,43.63
2022-09-11T04:13:31.496Z,41.75
2022-09-11T04:16:03.630Z,35.15
2022-09-11T04:18:31.317Z,41.67
2022-09-11T04:20:58.263Z,40.83
2022-09-11T04:23:25.269Z,35.78
2022-09-11T04:25:52.409Z,36.33
2022-09-11T04:28:19.649Z,37.30
2022-09-11T04:30:46.208Z,35.25
2022-09-11T04:33:12.745Z,34.75
2022-09-11T04:35:40.278Z,34.63
2022-09-11T04:38:07.964Z,33.80
2022-09-11T04:40:35.187Z,31.00
2022-09-11T04:43:02.961Z,31.67
2022-09-11T04:45:33.327Z,30.55
2022-09-11T04:48:00.766Z,32.90
2022-09-11T04:50:28.992Z,32.88
2022-09-11T04:52:55.560Z,34.78
2022-09-11T04:55:23.585Z,31.98
2022-09-11T04:57:50.214Z,30.77
2022-09-11T05:00:16.919Z,36.75
2022-09-11T05:02:43.527Z,32.88
2022-09-11T05:05:10.131Z,35.22
2022-09-11T05:07:36.821Z,37.65
2022-09-11T05:10:03.623Z,35.38
2022-09-11T05:12:31.820Z,38.40
2022-09-11T05:14:59.013Z,44.33
2022-09-11T05:17:25.696Z,39.60
2022-09-11T05:19:52.260Z,41.35
2022-09-11T05:22:18.949Z,41.72
2022-09-11T05:24:45.594Z,39.67
2022-09-11T05:27:13.867Z,39.72
2022-09-11T05:29:40.494Z,39.42
2022-09-11T05:32:07.082Z,37.92
2022-09-11T05:34:34.078Z,41.47
2022-09-11T05:37:02.134Z,37.03
2022-09-11T05:39:28.849Z,41.67
2022-09-11T05:41:55.431Z,42.60
2022-09-11T05:44:22.217Z,45.60
2022-09-11T05:46:48.777Z,42.85
2022-09-11T05:49:15.850Z,44.78
2022-09-11T05:51:42.457Z,42.33
2022-09-11T05:54:09.029Z,42.22
2022-09-11T05:56:35.606Z,38.80
2022-09-11T05:59:02.527Z,42.58
2022-09-11T06:01:30.994Z,42.05
2022-09-11T06:03:57.908Z,41.15
2022-09-11T06:06:25.327Z,41.55
2022-09-11T06:08:53.322Z,43.58
2022-09-11T06:11:21.862Z,40.50
2022-09-11T06:13:49.445Z,40.67
2022-09-11T06:16:25.056Z,42.67
2022-09-11T06:18:54.160Z,41.70
2022-09-11T06:21:23.510Z,43.28
2022-09-11T06:23:52.227Z,37.30
2022-09-11T06:26:21.319Z,40.80
2022-09-11T06:28:48.638Z,42.35
2022-09-11T06:31:18.057Z,40.45
2022-09-11T06:33:45.717Z,40.80
2022-09-11T06:36:14.666Z,41.22
2022-09-11T06:38:41.217Z,42.85
2022-09-11T06:41:11.782Z,41.83
2022-09-11T06:43:38.517Z,36.75
2022-09-11T06:46:19.880Z,38.13
2022-09-11T06:48:48.533Z,38.00
2022-09-11T06:51:17.394Z,38.80
2022-09-11T06:53:44.573Z,36.83
2022-09-11T06:56:14.644Z,40.88
2022-09-11T06:58:41.305Z,39.63
2022-09-11T07:01:11.550Z,40.40
2022-09-11T07:03:38.395Z,41.97
2022-09-11T07:06:06.511Z,37.22
2022-09-11T07:08:33.089Z,34.22
2022-09-11T07:11:06.675Z,33.53
2022-09-11T07:13:37.433Z,36.90
2022-09-11T07:16:07.812Z,36.35
2022-09-11T07:18:36.368Z,35.78
2022-09-11T07:21:14.660Z,36.10
2022-09-11T07:23:42.803Z,34.25
2022-09-11T07:26:12.181Z,35.80
2022-09-11T07:28:39.752Z,35.70
2022-09-11T07:31:35.553Z,35.70
2022-09-11T07:34:02.813Z,32.88
2022-09-11T07:36:32.395Z,32.70
2022-09-11T07:38:59.663Z,33.67
2022-09-11T07:41:27.951Z,34.42
2022-09-11T07:43:57.230Z,32.28
2022-09-11T07:46:25.127Z,29.85
2022-09-11T07:48:51.707Z,30.98
2022-09-11T07:51:19.118Z,34.63
2022-09-11T07:53:49.287Z,33.28
2022-09-11T07:56:19.626Z,30.98
2022-09-11T07:58:47.011Z,29.75
2022-09-11T08:01:19.705Z,28.17
2022-09-11T08:03:46.703Z,31.33
2022-09-11T08:06:19.004Z,33.28
2022-09-11T08:08:52.443Z,29.02
2022-09-11T08:11:19.644Z,30.70
2022-09-11T08:13:51.585Z,28.10
2022-09-11T08:16:19.546Z,30.70
2022-09-11T08:18:46.547Z,26.25
2022-09-11T08:21:13.331Z,29.50
2022-09-11T08:23:42.569Z,24.02
2022-09-11T08:26:22.620Z,28.75
2022-09-11T08:28:50.786Z,26.40
2022-09-11T08:31:20.044Z,24.15
2022-09-11T08:33:47.027Z,21.42
2022-09-11T08:36:16.790Z,22.88
2022-09-11T08:38:44.506Z,23.92
2022-09-11T08:41:21.538Z,22.95
2022-09-11T08:44:04.722Z,22.13
2022-09-11T08:46:36.429Z,25.00
2022-09-11T08:49:14.530Z,24.17
2022-09-11T08:51:42.534Z,24.17
2022-09-11T08:54:29.893Z,21.98
2022-09-11T08:57:19.762Z,20.35
2022-09-11T09:00:19.310Z,23.15
2022-09-11T09:02:51.596Z,22.55
2022-09-11T09:05:43.223Z,23.90
2022-09-11T09:08:13.453Z,23.92
2022-09-11T09:10:52.167Z,24.63
2022-09-11T09:13:57.255Z,23.77
2022-09-11T09:16:42.286Z,22.90
2022-09-11T09:19:21.537Z,25.40
2022-09-11T09:22:17.743Z,26.27
2022-09-11T09:24:54.454Z,26.23
2022-09-11T09:27:33.483Z,32.17
2022-09-11T09:30:05.341Z,27.85
2022-09-11T09:32:42.105Z,28.75
2022-09-11T09:35:35.637Z,31.05
2022-09-11T09:38:02.864Z,28.77
2022-09-11T09:40:33.273Z,27.55
2022-09-11T09:43:10.956Z,28.27
2022-09-11T09:46:00.723Z,28.45
2022-09-11T09:48:32.168Z,30.65
2022-09-11T09:50:58.941Z,31.93
2022-09-11T09:53:32.433Z,29.10
2022-09-11T09:56:00.420Z,28.33
2022-09-11T09:58:33.058Z,27.83
2022-09-11T10:00:59.762Z,28.08
2022-09-11T10:03:26.665Z,30.55
2022-09-11T10:05:55.874Z,29.38
2022-09-11T10:08:31.313Z,30.95
2022-09-11T10:11:03.706Z,28.40
2022-09-11T10:16:04.198Z,24.73
2022-09-11T10:18:40.043Z,22.30
2022-09-11T10:21:12.403Z,24.25
2022-09-11T10:26:45.699Z,22.30
2022-09-11T10:29:24.176Z,19.52
2022-09-11T10:31:56.161Z,19.42
2022-09-11T10:34:25.135Z,16.70
2022-09-11T10:37:23.423Z,21.58
2022-09-11T10:39:50.533Z,17.33
2022-09-11T10:42:22.175Z,18.95
2022-09-11T10:44:51.903Z,19.83
2022-09-11T10:47:29.762Z,19.40
2022-09-11T10:50:17.981Z,16.38
2022-09-11T10:53:17.969Z,18.00
2022-09-11T10:56:00.555Z,15.77
2022-09-11T10:58:35.297Z,15.40
2022-09-11T11:01:02.408Z,16.27
2022-09-11T11:03:29.625Z,14.30
2022-09-11T11:06:19.867Z,15.48
2022-09-11T11:09:01.409Z,14.90
2022-09-11T11:11:59.045Z,12.23
2022-09-11T11:14:37.823Z,13.27
2022-09-11T11:17:37.602Z,11.52
2022-09-11T11:20:37.921Z,8.93
2022-09-11T11:23:24.831Z,8.20
2022-09-11T11:26:14.943Z,8.90
2022-09-11T11:28:49.602Z,8.13
2022-09-11T11:31:16.200Z,8.52
2022-09-11T11:34:09.188Z,7.80
2022-09-11T11:36:45.969Z,6.97
2022-09-11T11:39:31.702Z,8.13
2022-09-11T11:42:10.358Z,8.45
2022-09-11T11:44:58.274Z,10.55
2022-09-11T11:47:36.802Z,10.35
2022-09-11T11:50:08.094Z,13.45
2022-09-11T11:52:43.233Z,10.57
2022-09-11T11:55:26.128Z,13.65
2022-09-11T11:58:11.092Z,15.20
2022-09-11T12:00:43.361Z,13.30
2022-09-11T12:05:44.661Z,13.57
2022-09-11T12:08:16.547Z,13.40
2022-09-11T12:10:57.730Z,13.60
2022-09-11T12:13:46.578Z,14.98
2022-09-11T12:16:32.683Z,14.35
2022-09-11T12:19:14.829Z,12.82
2022-09-11T12:22:02.456Z,13.65
2022-09-11T12:24:50.352Z,15.30
2022-09-11T12:27:33.655Z,12.95
2022-09-11T12:30:27.850Z,10.05
2022-09-11T12:33:01.006Z,10.85
2022-09-11T12:35:49.142Z,12.93
2022-09-11T12:38:35.359Z,14.32
2022-09-11T12:41:22.660Z,13.38
2022-09-11T12:43:50.210Z,14.35
2022-09-11T12:46:23.022Z,13.75
2022-09-11T12:49:20.915Z,15.15
2022-09-11T12:51:55.207Z,15.98
2022-09-11T12:54:33.427Z,14.82
2022-09-11T12:57:04.354Z,12.45
2022-09-11T12:59:40.913Z,14.75
2022-09-11T13:02:37.597Z,15.50
2022-09-11T13:05:25.614Z,13.93
2022-09-11T13:07:56.386Z,12.90
2022-09-11T13:10:43.712Z,14.57
2022-09-11T13:13:34.435Z,12.55
2022-09-11T13:16:34.597Z,13.88
2022-09-11T13:19:10.169Z,16.35
2022-09-11T13:21:39.284Z,15.48
2022-09-11T13:24:26.508Z,19.20
2022-09-11T13:27:02.330Z,16.65
2022-09-11T13:29:31.363Z,18.63
2022-09-11T13:32:00.542Z,15.50
2022-09-11T13:34:29.465Z,12.95
2022-09-11T13:36:57.718Z,15.30
2022-09-11T13:39:25.997Z,17.25
2022-09-11T13:42:04.710Z,14.02
2022-09-11T13:44:48.154Z,12.13
2022-09-11T13:47:23.553Z,11.80
2022-09-11T13:50:06.408Z,11.30
2022-09-11T13:52:35.411Z,12.15
2022-09-11T13:55:10.241Z,12.77
2022-09-11T13:57:52.123Z,12.82
2022-09-11T14:00:48.080Z,11.82
2022-09-11T14:03:27.984Z,13.88
2022-09-11T14:06:07.037Z,11.63
2022-09-11T14:08:40.234Z,10.45
2022-09-11T14:11:15.209Z,11.25
2022-09-11T14:14:03.551Z,12.52
2022-09-11T14:16:37.362Z,10.32
2022-09-11T14:19:13.144Z,11.07
2022-09-11T14:21:44.637Z,15.07
2022-09-11T14:24:33.657Z,13.45
2022-09-11T14:27:04.874Z,13.65
2022-09-11T14:29:38.350Z,11.95
2022-09-11T14:32:37.181Z,12.00
2022-09-11T14:35:08.562Z,11.65
2022-09-11T14:37:41.050Z,12.43
2022-09-11T14:40:15.772Z,12.57
2022-09-11T14:42:43.827Z,9.82
2022-09-11T14:45:18.053Z,14.55
2022-09-11T14:47:44.678Z,10.95
2022-09-11T14:50:12.506Z,12.38
2022-09-11T14:52:42.350Z,14.30
2022-09-11T14:55:17.330Z,12.93
2022-09-11T14:57:46.429Z,11.35
2022-09-11T15:00:18.756Z,18.92
2022-09-11T15:02:46.330Z,15.73
2022-09-11T15:05:18.530Z,14.48
2022-09-11T15:10:16.066Z,9.70
2022-09-11T15:12:42.751Z,11.35
2022-09-11T15:15:09.766Z,12.30
2022-09-11T15:17:36.741Z,11.48
2022-09-11T15:20:06.776Z,14.43
2022-09-11T15:22:33.439Z,11.60
2022-09-11T15:25:00.290Z,15.02
2022-09-11T15:27:27.049Z,14.23
2022-09-11T15:29:54.521Z,13.07
2022-09-11T15:32:21.417Z,12.20
2022-09-11T15:34:48.086Z,11.68
2022-09-11T15:37:16.766Z,13.40
2022-09-11T15:39:43.455Z,13.85
2022-09-11T15:42:10.381Z,14.18
2022-09-11T15:44:37.311Z,12.32
2022-09-11T15:47:04.535Z,13.45
2022-09-11T15:49:31.638Z,12.98
2022-09-11T15:51:59.554Z,12.20
2022-09-11T15:54:27.323Z,12.52
2022-09-11T15:56:54.630Z,14.70
2022-09-11T15:59:21.426Z,12.30
2022-09-11T16:01:48.369Z,14.32
2022-09-11T16:04:19.162Z,14.10
2022-09-11T16:06:48.234Z,14.77
2022-09-11T16:09:20.771Z,15.32
2022-09-11T16:11:50.211Z,15.70
2022-09-11T16:14:18.693Z,15.68
2022-09-11T16:16:48.242Z,14.45
2022-09-11T16:19:20.381Z,14.95
2022-09-11T16:21:47.754Z,14.25
2022-09-11T16:24:15.654Z,15.55
2022-09-11T16:26:44.010Z,15.95
2022-09-11T16:29:12.396Z,16.40
2022-09-11T16:31:39.391Z,14.45
2022-09-11T16:34:06.931Z,13.85
2022-09-11T16:36:38.302Z,14.13
2022-09-11T16:39:06.793Z,16.23
2022-09-11T16:41:33.544Z,17.20
2022-09-11T16:44:00.226Z,19.80
2022-09-11T16:46:27.156Z,16.92
2022-09-11T16:48:58.735Z,16.48
2022-09-11T16:51:28.110Z,18.98
2022-09-11T16:53:54.797Z,13.90
2022-09-11T16:56:23.299Z,14.68
2022-09-11T16:58:50.010Z,13.57
2022-09-11T17:01:19.476Z,16.55
2022-09-11T17:03:48.021Z,16.38
2022-09-11T17:06:16.193Z,15.23
2022-09-11T17:08:44.657Z,16.40
2022-09-11T17:11:14.089Z,15.90
2022-09-11T17:13:41.627Z,13.50
2022-09-11T17:16:16.560Z,16.08
2022-09-11T17:18:53.426Z,13.70
2022-09-11T17:21:22.781Z,14.98
2022-09-11T17:23:49.917Z,14.65
2022-09-11T17:26:17.414Z,13.95
2022-09-11T17:28:47.146Z,14.70
2022-09-11T17:31:15.417Z,13.57
2022-09-11T17:33:42.766Z,12.52
2022-09-11T17:36:11.261Z,13.98
2022-09-11T17:38:39.603Z,11.38
2022-09-11T17:41:08.210Z,15.55
2022-09-11T17:43:36.494Z,13.68
2022-09-11T17:46:05.281Z,13.60
2022-09-11T17:48:32.126Z,14.07
2022-09-11T17:51:07.074Z,13.30
2022-09-11T17:53:38.630Z,12.05
2022-09-11T17:56:10.803Z,11.68
2022-09-11T17:58:37.950Z,12.60
2022-09-11T18:01:05.457Z,12.32
2022-09-11T18:03:33.469Z,12.60
2022-09-11T18:06:02.091Z,17.08
2022-09-11T18:08:29.046Z,14.18
2022-09-11T18:11:00.778Z,14.90
2022-09-11T18:13:29.284Z,14.38
2022-09-11T18:15:56.189Z,14.88
2022-09-11T18:18:23.642Z,17.13
2022-09-11T18:20:53.569Z,13.32
2022-09-11T18:23:23.039Z,14.73
2022-09-11T18:25:50.518Z,13.43
2022-09-11T18:28:19.954Z,11.55
2022-09-11T18:30:47.272Z,15.27
2022-09-11T18:33:16.548Z,13.68
2022-09-11T18:35:44.181Z,14.52
2022-09-11T18:38:10.930Z,12.52
2022-09-11T18:40:37.545Z,13.55
2022-09-11T18:43:06.192Z,15.32
2022-09-11T18:45:35.296Z,13.40
2022-09-11T18:48:02.794Z,14.00
2022-09-11T18:50:29.510Z,13.75
2022-09-11T18:52:56.465Z,14.77
2022-09-11T18:55:23.462Z,11.95
2022-09-11T18:57:50.600Z,14.05
2022-09-11T19:00:18.266Z,15.45
2022-09-11T19:02:46.263Z,12.68
2022-09-11T19:05:15.378Z,11.45
2022-09-11T19:07:43.871Z,12.40
2022-09-11T19:10:11.774Z,10.57
2022-09-11T19:12:39.454Z,10.82
2022-09-11T19:15:08.158Z,13.32
2022-09-11T19:17:36.597Z,14.02
2022-09-11T19:20:06.739Z,13.75
2022-09-11T19:22:33.438Z,12.38
2022-09-11T19:25:00.454Z,13.82
2022-09-11T19:27:27.166Z,10.60
2022-09-11T19:29:54.838Z,13.23
2022-09-11T19:32:23.577Z,11.98
2022-09-11T19:34:50.665Z,12.35
2022-09-11T19:37:20.026Z,13.35
2022-09-11T19:39:51.768Z,12.65
2022-09-11T19:42:18.765Z,13.40
2022-09-11T19:44:45.454Z,12.82
2022-09-11T19:47:12.043Z,12.48
2022-09-11T19:49:38.700Z,13.23
2022-09-11T19:52:06.460Z,13.63
2022-09-11T19:54:35.370Z,13.45
2022-09-11T19:57:02.434Z,13.38
2022-09-11T19:59:29.123Z,13.00
2022-09-11T20:01:55.872Z,12.30
2022-09-11T20:04:22.607Z,11.15
2022-09-11T20:09:32.067Z,13.18
2022-09-11T20:12:01.210Z,14.25
2022-09-11T20:14:29.362Z,12.57
2022-09-11T20:16:55.960Z,12.30
2022-09-11T20:19:22.592Z,12.32
2022-09-11T20:21:49.251Z,12.02
2022-09-11T20:24:15.891Z,11.40
2022-09-11T20:26:42.485Z,12.88
2022-09-11T20:29:13.109Z,11.55
2022-09-11T20:31:48.785Z,12.77
2022-09-11T20:34:19.715Z,14.02
2022-09-11T20:36:46.631Z,15.85
2022-09-11T20:39:14.283Z,12.15
2022-09-11T20:41:41.453Z,12.23
2022-09-11T20:44:08.444Z,16.02
2022-09-11T20:46:35.120Z,12.98
2022-09-11T20:49:02.953Z,12.15
2022-09-11T20:51:29.586Z,12.73
2022-09-11T20:53:56.363Z,11.68
2022-09-11T20:56:23.679Z,13.90
2022-09-11T20:58:50.800Z,13.10
2022-09-11T21:01:21.608Z,11.98
2022-09-11T21:03:51.249Z,14.20
2022-09-11T21:06:22.038Z,15.25
2022-09-11T21:08:56.283Z,12.77
2022-09-11T21:11:24.458Z,12.52
2022-09-11T21:13:51.296Z,12.00
2022-09-11T21:16:19.529Z,13.93
2022-09-11T21:18:52.340Z,13.63
2022-09-11T21:21:19.863Z,13.88
2022-09-11T21:23:46.978Z,13.27
2022-09-11T21:26:16.628Z,14.13
2022-09-11T21:28:43.927Z,13.73
2022-09-11T21:31:10.943Z,15.48
2022-09-11T21:33:38.206Z,15.13
2022-09-11T21:36:06.065Z,13.88
2022-09-11T21:38:33.019Z,15.63
2022-09-11T21:41:01.967Z,14.55
2022-09-11T21:43:29.428Z,14.02
2022-09-11T21:45:56.411Z,14.65
2022-09-11T21:48:23.826Z,13.35
2022-09-11T21:50:50.748Z,17.70
2022-09-11T21:53:17.570Z,15.80
2022-09-11T21:55:46.165Z,15.15
2022-09-11T21:58:19.108Z,13.82
2022-09-11T22:00:47.966Z,13.30
2022-09-11T22:03:17.013Z,11.43
2022-09-11T22:05:44.965Z,13.55
2022-09-11T22:08:14.435Z,14.60
2022-09-11T22:10:50.171Z,13.48
2022-09-11T22:13:18.898Z,12.60
2022-09-11T22:15:48.419Z,14.32
2022-09-11T22:18:16.347Z,13.57
2022-09-11T22:20:43.522Z,14.00
2022-09-11T22:23:15.094Z,14.90
2022-09-11T22:25:41.666Z,14.32
2022-09-11T22:28:08.476Z,13.85
2022-09-11T22:30:35.175Z,16.25
2022-09-11T22:33:01.762Z,14.25
2022-09-11T22:35:28.727Z,15.45
2022-09-11T22:37:55.299Z,13.45
2022-09-11T22:40:21.903Z,13.80
2022-09-11T22:42:49.711Z,14.70
2022-09-11T22:45:16.506Z,15.93
2022-09-11T22:47:43.121Z,14.75
2022-09-11T22:50:10.137Z,14.02
2022-09-11T22:52:37.347Z,17.13
2022-09-11T22:55:05.926Z,14.32
2022-09-11T22:57:35.082Z,14.50
2022-09-11T23:00:04.342Z,16.30
2022-09-11T23:02:30.925Z,14.93
2022-09-11T23:05:16.175Z,15.05
2022-09-11T23:07:43.541Z,15.18
2022-09-11T23:10:10.390Z,14.32
2022-09-11T23:12:37.277Z,14.30
2022-09-11T23:15:04.402Z,10.95
2022-09-11T23:17:30.988Z,15.68
2022-09-11T23:19:57.617Z,14.85
2022-09-11T23:22:26.427Z,13.48
2022-09-11T23:24:53.160Z,12.02
2022-09-11T23:27:19.799Z,15.48
2022-09-11T23:29:46.390Z,12.15
2022-09-11T23:32:12.954Z,15.63
2022-09-11T23:34:39.502Z,13.95
2022-09-11T23:37:06.117Z,12.13
2022-09-11T23:39:32.724Z,11.10
2022-09-11T23:41:59.314Z,15.10
2022-09-11T23:44:25.878Z,14.35
2022-09-11T23:46:52.535Z,11.52
2022-09-11T23:49:19.602Z,13.90
2022-09-11T23:51:48.958Z,14.13
2022-09-11T23:54:15.671Z,11.35
2022-09-11T23:56:42.332Z,13.95
2022-09-11T23:59:09.136Z,13.32
